Au Gres, Michigan
Current Conditions -  °F | °C
As of 2:13 PM on Saturday 25 Oct 2014 (Local Time) from KOSC Reporting Station
Clear Clear  
Wind Chill: 66°   Ceiling: Unl
Heat Index: 66°   Visibility: 10mi
Dew Point: 35°   Wind: 24mph
Humidity: 31%   Direction: 280°W
Pressure: 29.62"   Gusts: 33mph
Location:  44.05°N, 83.7°W
Report Text: KOSC 251813Z AUTO 28021G29KT 10SM CLR 18/01 A2962 RMK AO2 T01900014
Loading
Personal Weather Stations






























Interactive Weather Map
Tropical Storm Tracking
New forecast layout! Learn more

10-Day Weather Forecast

Advertisements
Track Severe Weather on mobile